sensor_id;sensor_type;location;lat;lon;timestamp;temperature;humidity
17849;DHT22;9050;48.746;9.232;2023-03-04T00:00:11;2.70;99.90
17849;DHT22;9050;48.746;9.232;2023-03-04T00:02:38;2.70;99.90
17849;DHT22;9050;48.746;9.232;2023-03-04T00:05:06;2.60;99.90
17849;DHT22;9050;48.746;9.232;2023-03-04T00:07:35;2.60;99.90
17849;DHT22;9050;48.746;9.232;2023-03-04T00:10:03;2.60;99.90
17849;DHT22;9050;48.746;9.232;2023-03-04T00:12:30;2.60;99.90
17849;DHT22;9050;48.746;9.232;2023-03-04T00:14:57;2.60;99.90
17849;DHT22;9050;48.746;9.232;2023-03-04T00:17:25;2.40;99.90
17849;DHT22;9050;48.746;9.232;2023-03-04T00:19:54;2.30;99.90
17849;DHT22;9050;48.746;9.232;2023-03-04T00:22:21;2.20;99.90
17849;DHT22;9050;48.746;9.232;2023-03-04T00:24:48;1.90;99.90
17849;DHT22;9050;48.746;9.232;2023-03-04T00:27:15;1.70;99.90
17849;DHT22;9050;48.746;9.232;2023-03-04T00:29:42;1.60;99.90
17849;DHT22;9050;48.746;9.232;2023-03-04T00:32:08;1.60;99.90
17849;DHT22;9050;48.746;9.232;2023-03-04T00:34:37;1.60;99.90
17849;DHT22;9050;48.746;9.232;2023-03-04T00:37:05;1.60;99.90
17849;DHT22;9050;48.746;9.232;2023-03-04T00:39:31;1.50;99.90
17849;DHT22;9050;48.746;9.232;2023-03-04T00:41:58;1.50;99.90
17849;DHT22;9050;48.746;9.232;2023-03-04T00:44:25;1.40;99.90
17849;DHT22;9050;48.746;9.232;2023-03-04T00:46:52;1.40;99.90
17849;DHT22;9050;48.746;9.232;2023-03-04T00:49:19;1.30;99.90
17849;DHT22;9050;48.746;9.232;2023-03-04T00:51:47;1.20;99.90
17849;DHT22;9050;48.746;9.232;2023-03-04T00:54:14;1.10;99.90
17849;DHT22;9050;48.746;9.232;2023-03-04T00:56:41;1.00;99.90
17849;DHT22;9050;48.746;9.232;2023-03-04T00:59:07;1.10;99.90
17849;DHT22;9050;48.746;9.232;2023-03-04T01:01:34;1.10;99.90
17849;DHT22;9050;48.746;9.232;2023-03-04T01:04:01;1.10;99.90
17849;DHT22;9050;48.746;9.232;2023-03-04T01:06:28;1.00;99.90
17849;DHT22;9050;48.746;9.232;2023-03-04T01:08:57;1.10;99.90
17849;DHT22;9050;48.746;9.232;2023-03-04T01:11:23;1.10;99.90
17849;DHT22;9050;48.746;9.232;2023-03-04T01:13:50;1.20;99.90
17849;DHT22;9050;48.746;9.232;2023-03-04T01:16:17;1.30;99.90
17849;DHT22;9050;48.746;9.232;2023-03-04T01:18:44;1.40;99.90
17849;DHT22;9050;48.746;9.232;2023-03-04T01:21:12;1.50;99.90
17849;DHT22;9050;48.746;9.232;2023-03-04T01:23:38;1.50;99.90
17849;DHT22;9050;48.746;9.232;2023-03-04T01:26:07;1.50;99.90
17849;DHT22;9050;48.746;9.232;2023-03-04T01:28:34;1.50;99.90
17849;DHT22;9050;48.746;9.232;2023-03-04T01:31:01;1.40;99.90
17849;DHT22;9050;48.746;9.232;2023-03-04T01:33:28;1.40;99.90
17849;DHT22;9050;48.746;9.232;2023-03-04T01:35:54;1.40;99.90
17849;DHT22;9050;48.746;9.232;2023-03-04T01:38:21;1.30;99.90
17849;DHT22;9050;48.746;9.232;2023-03-04T01:40:48;1.20;99.90
17849;DHT22;9050;48.746;9.232;2023-03-04T01:43:21;1.10;99.90
17849;DHT22;9050;48.746;9.232;2023-03-04T01:45:50;1.00;99.90
17849;DHT22;9050;48.746;9.232;2023-03-04T01:48:20;0.80;99.90
17849;DHT22;9050;48.746;9.232;2023-03-04T01:50:48;0.80;99.90
17849;DHT22;9050;48.746;9.232;2023-03-04T01:53:19;0.60;99.90
17849;DHT22;9050;48.746;9.232;2023-03-04T01:55:46;0.50;99.90
17849;DHT22;9050;48.746;9.232;2023-03-04T01:58:13;0.50;99.90
17849;DHT22;9050;48.746;9.232;2023-03-04T02:00:42;0.50;99.90
17849;DHT22;9050;48.746;9.232;2023-03-04T02:03:11;0.40;99.90
17849;DHT22;9050;48.746;9.232;2023-03-04T02:05:42;0.40;99.90
17849;DHT22;9050;48.746;9.232;2023-03-04T02:08:11;0.50;99.90
17849;DHT22;9050;48.746;9.232;2023-03-04T02:10:40;0.50;99.90
17849;DHT22;9050;48.746;9.232;2023-03-04T02:13:07;0.50;99.90
17849;DHT22;9050;48.746;9.232;2023-03-04T02:15:34;0.40;99.90
17849;DHT22;9050;48.746;9.232;2023-03-04T02:18:06;0.40;99.90
17849;DHT22;9050;48.746;9.232;2023-03-04T02:20:44;0.30;99.90
17849;DHT22;9050;48.746;9.232;2023-03-04T02:23:17;0.50;99.90
17849;DHT22;9050;48.746;9.232;2023-03-04T02:25:49;0.70;99.90
17849;DHT22;9050;48.746;9.232;2023-03-04T02:28:18;0.70;99.90
17849;DHT22;9050;48.746;9.232;2023-03-04T02:30:45;0.70;99.90
17849;DHT22;9050;48.746;9.232;2023-03-04T02:33:16;0.70;99.90
17849;DHT22;9050;48.746;9.232;2023-03-04T02:35:44;0.60;99.90
17849;DHT22;9050;48.746;9.232;2023-03-04T02:38:11;0.70;99.90
17849;DHT22;9050;48.746;9.232;2023-03-04T02:40:40;0.60;99.90
17849;DHT22;9050;48.746;9.232;2023-03-04T02:43:09;0.50;99.90
17849;DHT22;9050;48.746;9.232;2023-03-04T02:45:41;0.50;99.90
17849;DHT22;9050;48.746;9.232;2023-03-04T02:48:08;0.40;99.90
17849;DHT22;9050;48.746;9.232;2023-03-04T02:50:40;0.30;99.90
17849;DHT22;9050;48.746;9.232;2023-03-04T02:53:07;0.30;99.90
17849;DHT22;9050;48.746;9.232;2023-03-04T02:55:34;0.20;99.90
17849;DHT22;9050;48.746;9.232;2023-03-04T02:58:01;0.10;99.90
17849;DHT22;9050;48.746;9.232;2023-03-04T03:00:28;0.10;99.90
17849;DHT22;9050;48.746;9.232;2023-03-04T03:02:56;0.10;99.90
17849;DHT22;9050;48.746;9.232;2023-03-04T03:05:24;0.10;99.90
17849;DHT22;9050;48.746;9.232;2023-03-04T03:07:52;0.00;99.90
17849;DHT22;9050;48.746;9.232;2023-03-04T03:10:19;0.20;99.90
17849;DHT22;9050;48.746;9.232;2023-03-04T03:12:46;0.20;99.90
17849;DHT22;9050;48.746;9.232;2023-03-04T03:15:13;0.30;99.90
17849;DHT22;9050;48.746;9.232;2023-03-04T03:17:40;0.30;99.90
17849;DHT22;9050;48.746;9.232;2023-03-04T03:20:10;0.40;99.90
17849;DHT22;9050;48.746;9.232;2023-03-04T03:22:38;0.30;99.90
17849;DHT22;9050;48.746;9.232;2023-03-04T03:25:06;0.40;99.90
17849;DHT22;9050;48.746;9.232;2023-03-04T03:27:32;0.40;99.90
17849;DHT22;9050;48.746;9.232;2023-03-04T03:29:59;0.30;99.90
17849;DHT22;9050;48.746;9.232;2023-03-04T03:32:26;0.40;99.90
17849;DHT22;9050;48.746;9.232;2023-03-04T03:34:53;0.40;99.90
17849;DHT22;9050;48.746;9.232;2023-03-04T03:37:21;0.30;99.90
17849;DHT22;9050;48.746;9.232;2023-03-04T03:39:48;0.20;99.90
17849;DHT22;9050;48.746;9.232;2023-03-04T03:42:15;0.00;99.90
17849;DHT22;9050;48.746;9.232;2023-03-04T03:44:41;-0.20;99.90
17849;DHT22;9050;48.746;9.232;2023-03-04T03:47:08;-0.30;99.90
17849;DHT22;9050;48.746;9.232;2023-03-04T03:49:35;-0.50;99.90
17849;DHT22;9050;48.746;9.232;2023-03-04T03:52:02;-0.60;99.90
17849;DHT22;9050;48.746;9.232;2023-03-04T03:54:30;-0.50;99.90
17849;DHT22;9050;48.746;9.232;2023-03-04T03:56:57;-0.60;99.90
17849;DHT22;9050;48.746;9.232;2023-03-04T03:59:24;-0.70;99.90
17849;DHT22;9050;48.746;9.232;2023-03-04T04:01:51;-0.70;99.90
17849;DHT22;9050;48.746;9.232;2023-03-04T04:04:18;-0.70;99.90
17849;DHT22;9050;48.746;9.232;2023-03-04T04:06:45;-0.70;99.90
17849;DHT22;9050;48.746;9.232;2023-03-04T04:09:12;-0.70;99.90
17849;DHT22;9050;48.746;9.232;2023-03-04T04:11:40;-0.80;99.90
17849;DHT22;9050;48.746;9.232;2023-03-04T04:14:08;-0.80;99.90
17849;DHT22;9050;48.746;9.232;2023-03-04T04:16:36;-0.80;99.90
17849;DHT22;9050;48.746;9.232;2023-03-04T04:19:03;-0.80;99.90
17849;DHT22;9050;48.746;9.232;2023-03-04T04:21:30;-0.70;99.90
17849;DHT22;9050;48.746;9.232;2023-03-04T04:23:57;-0.80;99.90
17849;DHT22;9050;48.746;9.232;2023-03-04T04:26:24;-0.80;99.90
17849;DHT22;9050;48.746;9.232;2023-03-04T04:28:52;-0.70;99.90
17849;DHT22;9050;48.746;9.232;2023-03-04T04:31:19;-0.70;99.90
17849;DHT22;9050;48.746;9.232;2023-03-04T04:33:45;-0.70;99.90
17849;DHT22;9050;48.746;9.232;2023-03-04T04:36:13;-0.70;99.90
17849;DHT22;9050;48.746;9.232;2023-03-04T04:38:40;-0.80;99.90
17849;DHT22;9050;48.746;9.232;2023-03-04T04:41:17;-0.80;99.90
17849;DHT22;9050;48.746;9.232;2023-03-04T04:43:45;-0.80;99.90
17849;DHT22;9050;48.746;9.232;2023-03-04T04:46:13;-0.80;99.90
17849;DHT22;9050;48.746;9.232;2023-03-04T04:48:40;-0.90;99.90
17849;DHT22;9050;48.746;9.232;2023-03-04T04:51:07;-1.00;99.90
17849;DHT22;9050;48.746;9.232;2023-03-04T04:53:34;-1.10;99.90
17849;DHT22;9050;48.746;9.232;2023-03-04T04:56:08;-1.20;99.90
17849;DHT22;9050;48.746;9.232;2023-03-04T04:58:35;-1.10;99.90
17849;DHT22;9050;48.746;9.232;2023-03-04T05:01:02;-1.10;99.90
17849;DHT22;9050;48.746;9.232;2023-03-04T05:03:31;-1.20;99.90
17849;DHT22;9050;48.746;9.232;2023-03-04T05:05:58;-1.20;99.90
17849;DHT22;9050;48.746;9.232;2023-03-04T05:08:25;-1.20;99.90
17849;DHT22;9050;48.746;9.232;2023-03-04T05:10:51;-1.20;99.90
17849;DHT22;9050;48.746;9.232;2023-03-04T05:13:18;-1.20;99.90
17849;DHT22;9050;48.746;9.232;2023-03-04T05:15:46;-1.20;99.90
17849;DHT22;9050;48.746;9.232;2023-03-04T05:18:13;-1.20;99.90
17849;DHT22;9050;48.746;9.232;2023-03-04T05:20:41;-1.10;99.90
17849;DHT22;9050;48.746;9.232;2023-03-04T05:23:08;-1.10;99.90
17849;DHT22;9050;48.746;9.232;2023-03-04T05:25:35;-1.10;99.90
17849;DHT22;9050;48.746;9.232;2023-03-04T05:28:01;-1.10;99.90
17849;DHT22;9050;48.746;9.232;2023-03-04T05:30:29;-1.00;99.90
17849;DHT22;9050;48.746;9.232;2023-03-04T05:32:56;-0.90;99.90
17849;DHT22;9050;48.746;9.232;2023-03-04T05:35:23;-0.90;99.90
17849;DHT22;9050;48.746;9.232;2023-03-04T05:37:51;-1.00;99.90
17849;DHT22;9050;48.746;9.232;2023-03-04T05:40:18;-0.90;99.90
17849;DHT22;9050;48.746;9.232;2023-03-04T05:42:45;-0.90;99.90
17849;DHT22;9050;48.746;9.232;2023-03-04T05:45:12;-0.80;99.90
17849;DHT22;9050;48.746;9.232;2023-03-04T05:47:38;-0.80;99.90
17849;DHT22;9050;48.746;9.232;2023-03-04T05:50:06;-0.90;99.90
17849;DHT22;9050;48.746;9.232;2023-03-04T05:52:33;-0.90;99.90
17849;DHT22;9050;48.746;9.232;2023-03-04T05:55:01;-1.00;99.90
17849;DHT22;9050;48.746;9.232;2023-03-04T05:57:28;-0.90;99.90
17849;DHT22;9050;48.746;9.232;2023-03-04T05:59:55;-0.90;99.90
17849;DHT22;9050;48.746;9.232;2023-03-04T06:02:22;-0.90;99.90
17849;DHT22;9050;48.746;9.232;2023-03-04T06:04:49;-1.00;99.90
17849;DHT22;9050;48.746;9.232;2023-03-04T06:07:16;-1.00;99.90
17849;DHT22;9050;48.746;9.232;2023-03-04T06:09:42;-1.10;99.90
17849;DHT22;9050;48.746;9.232;2023-03-04T06:12:11;-1.10;99.90
17849;DHT22;9050;48.746;9.232;2023-03-04T06:14:45;-1.20;99.90
17849;DHT22;9050;48.746;9.232;2023-03-04T06:17:11;-1.30;99.90
17849;DHT22;9050;48.746;9.232;2023-03-04T06:19:39;-1.30;99.90
17849;DHT22;9050;48.746;9.232;2023-03-04T06:22:06;-1.20;99.90
17849;DHT22;9050;48.746;9.232;2023-03-04T06:24:33;-1.20;99.90
17849;DHT22;9050;48.746;9.232;2023-03-04T06:27:01;-1.20;99.90
17849;DHT22;9050;48.746;9.232;2023-03-04T06:29:29;-1.20;99.90
17849;DHT22;9050;48.746;9.232;2023-03-04T06:31:56;-1.20;99.90
17849;DHT22;9050;48.746;9.232;2023-03-04T06:34:23;-1.10;99.90
17849;DHT22;9050;48.746;9.232;2023-03-04T06:36:50;-1.10;99.90
17849;DHT22;9050;48.746;9.232;2023-03-04T06:39:17;-1.00;99.90
17849;DHT22;9050;48.746;9.232;2023-03-04T06:41:44;-0.90;99.90
17849;DHT22;9050;48.746;9.232;2023-03-04T06:44:11;-0.80;99.90
17849;DHT22;9050;48.746;9.232;2023-03-04T06:46:39;-0.70;99.90
17849;DHT22;9050;48.746;9.232;2023-03-04T06:49:07;-0.60;99.90
17849;DHT22;9050;48.746;9.232;2023-03-04T06:51:33;-0.50;99.90
17849;DHT22;9050;48.746;9.232;2023-03-04T06:54:01;-0.50;99.90
17849;DHT22;9050;48.746;9.232;2023-03-04T06:56:27;-0.30;99.90
17849;DHT22;9050;48.746;9.232;2023-03-04T06:58:54;-0.30;99.90
17849;DHT22;9050;48.746;9.232;2023-03-04T07:01:23;-0.30;99.90
17849;DHT22;9050;48.746;9.232;2023-03-04T07:03:52;-0.30;99.90
17849;DHT22;9050;48.746;9.232;2023-03-04T07:06:21;-0.20;99.90
17849;DHT22;9050;48.746;9.232;2023-03-04T07:08:48;-0.20;99.90
17849;DHT22;9050;48.746;9.232;2023-03-04T07:11:16;-0.20;99.90
17849;DHT22;9050;48.746;9.232;2023-03-04T07:13:43;-0.20;99.90
17849;DHT22;9050;48.746;9.232;2023-03-04T07:16:14;-0.20;99.90
17849;DHT22;9050;48.746;9.232;2023-03-04T07:18:42;-0.20;99.90
17849;DHT22;9050;48.746;9.232;2023-03-04T07:21:10;-0.10;99.90
17849;DHT22;9050;48.746;9.232;2023-03-04T07:23:38;0.00;99.90
17849;DHT22;9050;48.746;9.232;2023-03-04T07:26:05;0.10;99.90
17849;DHT22;9050;48.746;9.232;2023-03-04T07:28:32;0.10;99.90
17849;DHT22;9050;48.746;9.232;2023-03-04T07:33:37;0.10;99.90
17849;DHT22;9050;48.746;9.232;2023-03-04T07:36:05;0.20;99.90
17849;DHT22;9050;48.746;9.232;2023-03-04T07:38:33;0.00;99.90
17849;DHT22;9050;48.746;9.232;2023-03-04T07:41:00;0.10;99.90
17849;DHT22;9050;48.746;9.232;2023-03-04T07:43:27;0.20;99.90
17849;DHT22;9050;48.746;9.232;2023-03-04T07:45:58;0.20;99.90
17849;DHT22;9050;48.746;9.232;2023-03-04T07:48:25;0.10;99.90
17849;DHT22;9050;48.746;9.232;2023-03-04T07:51:02;0.10;99.90
17849;DHT22;9050;48.746;9.232;2023-03-04T07:53:29;0.20;99.90
17849;DHT22;9050;48.746;9.232;2023-03-04T07:55:57;0.30;99.90
17849;DHT22;9050;48.746;9.232;2023-03-04T07:58:24;0.30;99.90
17849;DHT22;9050;48.746;9.232;2023-03-04T08:00:51;0.30;99.90
17849;DHT22;9050;48.746;9.232;2023-03-04T08:03:18;0.30;99.90
17849;DHT22;9050;48.746;9.232;2023-03-04T08:05:45;0.20;99.90
17849;DHT22;9050;48.746;9.232;2023-03-04T08:08:12;0.20;99.90
17849;DHT22;9050;48.746;9.232;2023-03-04T08:10:39;0.30;99.90
17849;DHT22;9050;48.746;9.232;2023-03-04T08:13:07;0.30;99.90
17849;DHT22;9050;48.746;9.232;2023-03-04T08:15:39;0.30;99.90
17849;DHT22;9050;48.746;9.232;2023-03-04T08:18:06;0.10;99.90
17849;DHT22;9050;48.746;9.232;2023-03-04T08:20:33;0.00;99.90
17849;DHT22;9050;48.746;9.232;2023-03-04T08:22:59;0.10;99.90
17849;DHT22;9050;48.746;9.232;2023-03-04T08:25:26;0.20;99.90
17849;DHT22;9050;48.746;9.232;2023-03-04T08:27:53;0.30;99.90
17849;DHT22;9050;48.746;9.232;2023-03-04T08:30:22;0.20;99.90
17849;DHT22;9050;48.746;9.232;2023-03-04T08:32:48;0.10;99.90
17849;DHT22;9050;48.746;9.232;2023-03-04T08:35:16;0.00;99.90
17849;DHT22;9050;48.746;9.232;2023-03-04T08:37:42;0.10;99.90
17849;DHT22;9050;48.746;9.232;2023-03-04T08:40:11;0.20;99.90
17849;DHT22;9050;48.746;9.232;2023-03-04T08:42:39;0.00;99.90
17849;DHT22;9050;48.746;9.232;2023-03-04T08:45:06;0.10;99.90
17849;DHT22;9050;48.746;9.232;2023-03-04T08:47:35;0.10;99.90
17849;DHT22;9050;48.746;9.232;2023-03-04T08:50:03;0.30;99.90
17849;DHT22;9050;48.746;9.232;2023-03-04T08:52:29;0.40;99.90
17849;DHT22;9050;48.746;9.232;2023-03-04T08:54:56;0.40;99.90
17849;DHT22;9050;48.746;9.232;2023-03-04T08:57:23;0.40;99.90
17849;DHT22;9050;48.746;9.232;2023-03-04T08:59:50;0.40;99.90
17849;DHT22;9050;48.746;9.232;2023-03-04T09:02:17;0.40;99.90
17849;DHT22;9050;48.746;9.232;2023-03-04T09:04:45;0.20;99.90
17849;DHT22;9050;48.746;9.232;2023-03-04T09:07:12;0.10;99.90
17849;DHT22;9050;48.746;9.232;2023-03-04T09:09:40;0.30;99.90
17849;DHT22;9050;48.746;9.232;2023-03-04T09:12:07;0.20;99.90
17849;DHT22;9050;48.746;9.232;2023-03-04T09:14:34;0.20;99.90
17849;DHT22;9050;48.746;9.232;2023-03-04T09:17:01;0.00;99.90
17849;DHT22;9050;48.746;9.232;2023-03-04T09:19:28;0.10;99.90
17849;DHT22;9050;48.746;9.232;2023-03-04T09:21:57;0.30;99.90
17849;DHT22;9050;48.746;9.232;2023-03-04T09:24:24;0.50;99.90
17849;DHT22;9050;48.746;9.232;2023-03-04T09:26:52;0.70;99.90
17849;DHT22;9050;48.746;9.232;2023-03-04T09:29:20;0.70;99.90
17849;DHT22;9050;48.746;9.232;2023-03-04T09:31:47;0.60;99.90
17849;DHT22;9050;48.746;9.232;2023-03-04T09:34:14;0.60;99.90
17849;DHT22;9050;48.746;9.232;2023-03-04T09:36:41;0.70;99.90
17849;DHT22;9050;48.746;9.232;2023-03-04T09:39:09;0.90;99.90
17849;DHT22;9050;48.746;9.232;2023-03-04T09:41:38;0.80;99.90
17849;DHT22;9050;48.746;9.232;2023-03-04T09:44:13;0.70;99.90
17849;DHT22;9050;48.746;9.232;2023-03-04T09:46:43;0.80;99.90
17849;DHT22;9050;48.746;9.232;2023-03-04T09:49:11;1.00;99.90
17849;DHT22;9050;48.746;9.232;2023-03-04T09:51:48;1.20;99.90
17849;DHT22;9050;48.746;9.232;2023-03-04T09:57:17;1.30;99.90
17849;DHT22;9050;48.746;9.232;2023-03-04T09:59:51;1.40;99.90
17849;DHT22;9050;48.746;9.232;2023-03-04T10:02:27;1.30;99.90
17849;DHT22;9050;48.746;9.232;2023-03-04T10:04:58;1.20;99.90
17849;DHT22;9050;48.746;9.232;2023-03-04T10:07:32;1.10;99.90
17849;DHT22;9050;48.746;9.232;2023-03-04T10:10:03;1.10;99.90
17849;DHT22;9050;48.746;9.232;2023-03-04T10:12:33;1.10;99.90
17849;DHT22;9050;48.746;9.232;2023-03-04T10:15:04;0.90;99.90
17849;DHT22;9050;48.746;9.232;2023-03-04T10:17:35;1.10;99.90
17849;DHT22;9050;48.746;9.232;2023-03-04T10:20:05;1.40;99.90
17849;DHT22;9050;48.746;9.232;2023-03-04T10:22:35;1.40;99.90
17849;DHT22;9050;48.746;9.232;2023-03-04T10:25:15;1.70;99.90
17849;DHT22;9050;48.746;9.232;2023-03-04T10:27:49;2.20;99.90
17849;DHT22;9050;48.746;9.232;2023-03-04T10:30:22;2.30;99.90
17849;DHT22;9050;48.746;9.232;2023-03-04T10:32:52;2.60;99.90
17849;DHT22;9050;48.746;9.232;2023-03-04T10:35:24;2.60;99.90
17849;DHT22;9050;48.746;9.232;2023-03-04T10:37:52;2.80;99.90
17849;DHT22;9050;48.746;9.232;2023-03-04T10:40:24;3.00;99.90
17849;DHT22;9050;48.746;9.232;2023-03-04T10:42:51;3.00;99.90
17849;DHT22;9050;48.746;9.232;2023-03-04T10:45:21;2.90;99.90
17849;DHT22;9050;48.746;9.232;2023-03-04T10:47:52;2.60;99.90
17849;DHT22;9050;48.746;9.232;2023-03-04T10:50:24;2.30;99.90
17849;DHT22;9050;48.746;9.232;2023-03-04T10:52:51;2.10;99.90
17849;DHT22;9050;48.746;9.232;2023-03-04T10:55:25;2.00;99.90
17849;DHT22;9050;48.746;9.232;2023-03-04T10:57:54;2.00;99.90
17849;DHT22;9050;48.746;9.232;2023-03-04T11:00:31;2.00;99.90
17849;DHT22;9050;48.746;9.232;2023-03-04T11:06:12;2.20;99.90
17849;DHT22;9050;48.746;9.232;2023-03-04T11:08:41;2.10;99.90
17849;DHT22;9050;48.746;9.232;2023-03-04T11:11:24;2.20;99.90
17849;DHT22;9050;48.746;9.232;2023-03-04T11:13:57;2.60;99.90
17849;DHT22;9050;48.746;9.232;2023-03-04T11:16:26;2.60;99.90
17849;DHT22;9050;48.746;9.232;2023-03-04T11:18:55;2.90;99.90
17849;DHT22;9050;48.746;9.232;2023-03-04T11:21:26;3.00;99.90
17849;DHT22;9050;48.746;9.232;2023-03-04T11:23:56;2.80;99.90
17849;DHT22;9050;48.746;9.232;2023-03-04T11:26:30;2.80;99.90
17849;DHT22;9050;48.746;9.232;2023-03-04T11:29:02;2.70;99.90
17849;DHT22;9050;48.746;9.232;2023-03-04T11:31:35;2.70;99.90
17849;DHT22;9050;48.746;9.232;2023-03-04T11:34:12;2.70;99.90
17849;DHT22;9050;48.746;9.232;2023-03-04T11:36:51;2.30;99.90
17849;DHT22;9050;48.746;9.232;2023-03-04T11:39:28;2.60;99.90
17849;DHT22;9050;48.746;9.232;2023-03-04T11:42:02;2.80;99.90
17849;DHT22;9050;48.746;9.232;2023-03-04T11:44:30;2.60;99.90
17849;DHT22;9050;48.746;9.232;2023-03-04T11:47:12;2.50;99.90
17849;DHT22;9050;48.746;9.232;2023-03-04T11:50:03;2.70;99.90
17849;DHT22;9050;48.746;9.232;2023-03-04T11:52:49;2.50;99.90
17849;DHT22;9050;48.746;9.232;2023-03-04T11:55:28;2.80;99.90
17849;DHT22;9050;48.746;9.232;2023-03-04T11:58:07;2.90;99.90
17849;DHT22;9050;48.746;9.232;2023-03-04T12:00:39;3.10;99.90
17849;DHT22;9050;48.746;9.232;2023-03-04T12:06:12;3.70;99.90
17849;DHT22;9050;48.746;9.232;2023-03-04T12:11:43;3.60;99.90
17849;DHT22;9050;48.746;9.232;2023-03-04T12:14:22;3.30;99.90
17849;DHT22;9050;48.746;9.232;2023-03-04T12:17:21;3.10;99.90
17849;DHT22;9050;48.746;9.232;2023-03-04T12:20:02;2.90;99.90
17849;DHT22;9050;48.746;9.232;2023-03-04T12:22:42;2.90;99.90
17849;DHT22;9050;48.746;9.232;2023-03-04T12:25:28;3.00;99.90
17849;DHT22;9050;48.746;9.232;2023-03-04T12:28:06;3.10;99.90
17849;DHT22;9050;48.746;9.232;2023-03-04T12:30:50;3.20;99.90
17849;DHT22;9050;48.746;9.232;2023-03-04T12:33:26;3.10;99.90
17849;DHT22;9050;48.746;9.232;2023-03-04T12:36:06;3.20;99.90
17849;DHT22;9050;48.746;9.232;2023-03-04T12:38:53;3.20;99.90
17849;DHT22;9050;48.746;9.232;2023-03-04T12:41:32;2.80;99.90
17849;DHT22;9050;48.746;9.232;2023-03-04T12:44:06;2.70;99.90
17849;DHT22;9050;48.746;9.232;2023-03-04T12:46:47;2.70;99.90
17849;DHT22;9050;48.746;9.232;2023-03-04T12:49:29;2.80;99.90
17849;DHT22;9050;48.746;9.232;2023-03-04T12:52:04;2.80;99.90
17849;DHT22;9050;48.746;9.232;2023-03-04T12:54:39;2.70;99.90
17849;DHT22;9050;48.746;9.232;2023-03-04T12:57:11;2.40;99.90
17849;DHT22;9050;48.746;9.232;2023-03-04T12:59:42;2.50;99.90
17849;DHT22;9050;48.746;9.232;2023-03-04T13:02:28;2.80;99.90
17849;DHT22;9050;48.746;9.232;2023-03-04T13:05:03;2.90;99.90
17849;DHT22;9050;48.746;9.232;2023-03-04T13:07:40;3.00;99.90
17849;DHT22;9050;48.746;9.232;2023-03-04T13:10:15;3.20;99.90
17849;DHT22;9050;48.746;9.232;2023-03-04T13:12:48;3.10;99.90
17849;DHT22;9050;48.746;9.232;2023-03-04T13:15:34;2.90;99.90
17849;DHT22;9050;48.746;9.232;2023-03-04T13:18:34;2.90;99.90
17849;DHT22;9050;48.746;9.232;2023-03-04T13:21:20;2.70;99.90
17849;DHT22;9050;48.746;9.232;2023-03-04T13:23:48;2.80;99.90
17849;DHT22;9050;48.746;9.232;2023-03-04T13:26:30;2.70;99.90
17849;DHT22;9050;48.746;9.232;2023-03-04T13:29:32;2.80;99.90
17849;DHT22;9050;48.746;9.232;2023-03-04T13:32:03;2.80;99.90
17849;DHT22;9050;48.746;9.232;2023-03-04T13:34:51;2.90;99.90
17849;DHT22;9050;48.746;9.232;2023-03-04T13:37:27;2.80;99.90
17849;DHT22;9050;48.746;9.232;2023-03-04T13:43:24;2.80;99.90
17849;DHT22;9050;48.746;9.232;2023-03-04T13:45:51;2.80;99.90
17849;DHT22;9050;48.746;9.232;2023-03-04T13:48:29;2.80;99.90
17849;DHT22;9050;48.746;9.232;2023-03-04T13:50:57;2.60;99.90
17849;DHT22;9050;48.746;9.232;2023-03-04T13:53:51;2.70;99.90
17849;DHT22;9050;48.746;9.232;2023-03-04T13:56:37;2.70;99.90
17849;DHT22;9050;48.746;9.232;2023-03-04T13:59:20;2.50;99.90
17849;DHT22;9050;48.746;9.232;2023-03-04T14:02:02;2.40;99.90
17849;DHT22;9050;48.746;9.232;2023-03-04T14:04:31;2.50;99.90
17849;DHT22;9050;48.746;9.232;2023-03-04T14:07:02;2.50;99.90
17849;DHT22;9050;48.746;9.232;2023-03-04T14:09:34;2.60;99.90
17849;DHT22;9050;48.746;9.232;2023-03-04T14:12:03;2.50;99.90
17849;DHT22;9050;48.746;9.232;2023-03-04T14:14:39;2.30;99.90
17849;DHT22;9050;48.746;9.232;2023-03-04T14:17:11;2.20;99.90
17849;DHT22;9050;48.746;9.232;2023-03-04T14:19:44;2.20;99.90
17849;DHT22;9050;48.746;9.232;2023-03-04T14:22:23;2.30;99.90
17849;DHT22;9050;48.746;9.232;2023-03-04T14:24:58;2.40;99.90
17849;DHT22;9050;48.746;9.232;2023-03-04T14:27:25;2.50;99.90
17849;DHT22;9050;48.746;9.232;2023-03-04T14:29:56;2.30;99.90
17849;DHT22;9050;48.746;9.232;2023-03-04T14:32:24;2.30;99.90
17849;DHT22;9050;48.746;9.232;2023-03-04T14:34:55;2.30;99.90
17849;DHT22;9050;48.746;9.232;2023-03-04T14:37:26;2.50;99.90
17849;DHT22;9050;48.746;9.232;2023-03-04T14:39:57;2.30;99.90
17849;DHT22;9050;48.746;9.232;2023-03-04T14:42:30;2.40;99.90
17849;DHT22;9050;48.746;9.232;2023-03-04T14:45:01;2.30;99.90
17849;DHT22;9050;48.746;9.232;2023-03-04T14:47:33;2.40;99.90
17849;DHT22;9050;48.746;9.232;2023-03-04T14:50:04;2.40;99.90
17849;DHT22;9050;48.746;9.232;2023-03-04T14:52:37;2.20;99.90
17849;DHT22;9050;48.746;9.232;2023-03-04T14:55:19;2.20;99.90
17849;DHT22;9050;48.746;9.232;2023-03-04T14:57:48;2.20;99.90
17849;DHT22;9050;48.746;9.232;2023-03-04T15:00:34;2.30;99.90
17849;DHT22;9050;48.746;9.232;2023-03-04T15:03:05;2.00;99.90
17849;DHT22;9050;48.746;9.232;2023-03-04T15:05:34;2.00;99.90
17849;DHT22;9050;48.746;9.232;2023-03-04T15:08:19;2.10;99.90
17849;DHT22;9050;48.746;9.232;2023-03-04T15:10:53;2.10;99.90
17849;DHT22;9050;48.746;9.232;2023-03-04T15:13:36;2.10;99.90
17849;DHT22;9050;48.746;9.232;2023-03-04T15:16:03;2.10;99.90
17849;DHT22;9050;48.746;9.232;2023-03-04T15:18:30;2.00;99.90
17849;DHT22;9050;48.746;9.232;2023-03-04T15:20:59;1.90;99.90
17849;DHT22;9050;48.746;9.232;2023-03-04T15:23:29;1.90;99.90
17849;DHT22;9050;48.746;9.232;2023-03-04T15:25:57;1.80;99.90
17849;DHT22;9050;48.746;9.232;2023-03-04T15:28:28;1.90;99.90
17849;DHT22;9050;48.746;9.232;2023-03-04T15:30:55;2.10;99.90
17849;DHT22;9050;48.746;9.232;2023-03-04T15:33:22;2.10;99.90
17849;DHT22;9050;48.746;9.232;2023-03-04T15:35:53;2.00;99.90
17849;DHT22;9050;48.746;9.232;2023-03-04T15:38:20;2.10;99.90
17849;DHT22;9050;48.746;9.232;2023-03-04T15:40:49;2.10;99.90
17849;DHT22;9050;48.746;9.232;2023-03-04T15:43:18;2.00;99.90
17849;DHT22;9050;48.746;9.232;2023-03-04T15:45:46;2.00;99.90
17849;DHT22;9050;48.746;9.232;2023-03-04T15:48:14;2.10;99.90
17849;DHT22;9050;48.746;9.232;2023-03-04T15:50:44;2.00;99.90
17849;DHT22;9050;48.746;9.232;2023-03-04T15:53:15;1.90;99.90
17849;DHT22;9050;48.746;9.232;2023-03-04T15:55:44;1.90;99.90
17849;DHT22;9050;48.746;9.232;2023-03-04T15:58:13;1.90;99.90
17849;DHT22;9050;48.746;9.232;2023-03-04T16:00:41;1.90;99.90
17849;DHT22;9050;48.746;9.232;2023-03-04T16:03:13;2.00;99.90
17849;DHT22;9050;48.746;9.232;2023-03-04T16:05:40;2.10;99.90
17849;DHT22;9050;48.746;9.232;2023-03-04T16:08:10;2.10;99.90
17849;DHT22;9050;48.746;9.232;2023-03-04T16:10:37;2.20;99.90
17849;DHT22;9050;48.746;9.232;2023-03-04T16:13:04;2.20;99.90
17849;DHT22;9050;48.746;9.232;2023-03-04T16:15:33;2.30;99.90
17849;DHT22;9050;48.746;9.232;2023-03-04T16:17:59;2.30;99.90
17849;DHT22;9050;48.746;9.232;2023-03-04T16:20:28;2.20;99.90
17849;DHT22;9050;48.746;9.232;2023-03-04T16:22:57;2.10;99.90
17849;DHT22;9050;48.746;9.232;2023-03-04T16:25:25;2.10;99.90
17849;DHT22;9050;48.746;9.232;2023-03-04T16:27:53;2.20;99.90
17849;DHT22;9050;48.746;9.232;2023-03-04T16:30:22;2.20;99.90
17849;DHT22;9050;48.746;9.232;2023-03-04T16:32:50;2.00;99.90